Time;durP1;ratioP1;P1;durP2;ratioP2;P2;SDS_P1;SDS_P2;PMS_P1;PMS_P2;Temp;Humidity;BMP_temperature;BMP_pressure;BME280_temperature;BME280_humidity;BME280_pressure;Samples;Min_cycle;Max_cycle;Signal;HPM_P1;HPM_P2
2023/08/04 00:00:17;;;;;;;0.10;0.10;;;;;;;17.29;58.26;101377.09;7347645;19;20026;-56
2023/08/04 00:02:43;;;;;;;0.00;0.00;;;;;;;17.33;57.34;101386.59;7346206;19;20011;-54
2023/08/04 00:05:08;;;;;;;0.10;0.10;;;;;;;17.32;57.46;101382.22;7349045;19;20416;-56
2023/08/04 00:07:34;;;;;;;0.10;0.10;;;;;;;17.30;58.39;101378.81;7346186;19;20019;-54
2023/08/04 00:10:00;;;;;;;0.10;0.10;;;;;;;17.29;58.89;101378.88;7348500;19;20025;-56
2023/08/04 00:12:26;;;;;;;0.05;0.05;;;;;;;17.27;57.79;101376.28;7347893;19;20034;-54
2023/08/04 00:14:51;;;;;;;0.10;0.10;;;;;;;17.25;58.42;101378.13;7346884;19;20110;-55
2023/08/04 00:17:17;;;;;;;0.10;0.10;;;;;;;17.21;58.06;101365.97;7345515;19;20021;-55
2023/08/04 00:19:43;;;;;;;0.10;0.10;;;;;;;17.17;58.46;101364.38;7346894;19;20570;-55
2023/08/04 00:22:08;;;;;;;0.10;0.10;;;;;;;17.13;58.41;101373.31;7348818;19;20688;-55
2023/08/04 00:24:34;;;;;;;0.10;0.10;;;;;;;17.08;58.20;101372.63;7345098;19;20018;-56
2023/08/04 00:27:00;;;;;;;0.10;0.10;;;;;;;17.04;57.66;101381.63;7349861;19;20022;-57
2023/08/04 00:29:26;;;;;;;0.00;0.00;;;;;;;16.98;57.90;101387.09;7350200;19;20036;-56
2023/08/04 00:31:52;;;;;;;0.00;0.00;;;;;;;16.92;58.19;101376.78;7347764;19;20819;-57
2023/08/04 00:34:17;;;;;;;0.00;0.00;;;;;;;16.86;57.71;101380.53;7348938;19;20039;-56
2023/08/04 00:36:45;;;;;;;0.08;0.08;;;;;;;16.80;57.58;101376.34;7348644;19;20118;-57
2023/08/04 00:39:10;;;;;;;0.10;0.10;;;;;;;16.74;58.08;101376.59;7347880;19;20036;-55
2023/08/04 00:41:35;;;;;;;0.00;0.00;;;;;;;16.66;58.11;101378.59;7350199;19;20764;-57
2023/08/04 00:44:02;;;;;;;0.00;0.00;;;;;;;16.61;58.11;101380.56;7345994;19;20030;-55
2023/08/04 00:46:29;;;;;;;0.10;0.10;;;;;;;16.53;58.26;101367.66;7348778;19;20577;-54
2023/08/04 00:48:55;;;;;;;;;;;;;;;16.50;57.53;101370.41;7346234;19;20014;-57
2023/08/04 00:51:20;;;;;;;0.10;0.10;;;;;;;16.41;58.26;101377.78;7347022;19;19925;-56
2023/08/04 00:53:46;;;;;;;0.03;0.03;;;;;;;16.33;58.39;101371.03;7345472;19;20030;-57
2023/08/04 00:56:11;;;;;;;0.00;0.00;;;;;;;16.26;58.84;101373.91;7346412;19;20009;-56
2023/08/04 00:58:36;;;;;;;0.00;0.00;;;;;;;16.18;58.55;101382.09;7346235;19;20014;-56
2023/08/04 01:01:02;;;;;;;0.00;0.00;;;;;;;16.11;59.10;101385.84;7348163;19;20086;-54
2023/08/04 01:03:28;;;;;;;0.00;0.00;;;;;;;16.05;59.20;101381.66;7344020;19;20019;-57
2023/08/04 01:06:02;;;;;;;0.00;0.00;;;;;;;16.01;59.07;101384.44;7345703;19;20018;-57
2023/08/04 01:08:33;;;;;;;0.00;0.00;;;;;;;15.96;59.35;101391.66;7348697;19;20125;-56
2023/08/04 01:11:03;;;;;;;0.00;0.00;;;;;;;15.80;59.97;101371.09;7348924;19;20018;-56
2023/08/04 01:13:29;;;;;;;0.00;0.00;;;;;;;15.86;59.73;101395.50;7347825;19;20002;-55
2023/08/04 01:15:56;;;;;;;0.03;0.03;;;;;;;15.73;59.40;101369.59;7343916;19;20018;-54
2023/08/04 01:18:22;;;;;;;0.10;0.10;;;;;;;15.77;60.29;101383.53;7345392;19;20010;-54
2023/08/04 01:20:48;;;;;;;0.10;0.10;;;;;;;15.73;60.23;101380.13;7345784;19;20481;-56
2023/08/04 01:23:14;;;;;;;0.10;0.10;;;;;;;15.70;60.12;101392.53;7350533;19;21144;-56
2023/08/04 01:25:41;;;;;;;0.05;0.05;;;;;;;15.65;60.40;101392.66;7327440;19;20034;-57
2023/08/04 01:28:15;;;;;;;0.08;0.08;;;;;;;15.63;60.54;101394.50;7349966;19;20018;-56
2023/08/04 01:30:43;;;;;;;0.00;0.00;;;;;;;15.55;60.63;101392.06;7347287;19;20033;-57
2023/08/04 01:33:09;;;;;;;0.10;0.10;;;;;;;15.49;60.30;101391.41;7348607;19;20010;-56
2023/08/04 01:35:34;;;;;;;0.10;0.10;;;;;;;15.49;60.36;101408.06;7349904;19;20010;-55
2023/08/04 01:38:00;;;;;;;0.10;0.10;;;;;;;15.45;60.63;101408.22;7349160;19;20018;-57
2023/08/04 01:40:25;;;;;;;0.03;0.03;;;;;;;15.40;60.66;101399.59;7349362;19;20077;-53
2023/08/04 01:42:51;;;;;;;0.00;0.00;;;;;;;15.37;60.80;101410.25;7350546;19;20029;-57
2023/08/04 01:45:16;;;;;;;0.10;0.10;;;;;;;15.32;61.07;101405.97;7349059;19;20019;-55
2023/08/04 01:47:42;;;;;;;0.00;0.00;;;;;;;15.28;60.96;101408.75;7350505;19;20014;-55
2023/08/04 01:50:08;;;;;;;0.00;0.00;;;;;;;15.25;60.56;101409.69;7349472;19;20726;-56
2023/08/04 01:52:34;;;;;;;0.00;0.00;;;;;;;15.21;60.71;101418.59;7347650;19;20799;-56
2023/08/04 01:54:59;;;;;;;0.10;0.10;;;;;;;15.18;60.59;101423.09;7350831;19;20007;-56
2023/08/04 01:57:25;;;;;;;0.10;0.10;;;;;;;15.13;60.69;101409.22;7346363;19;20027;-56
2023/08/04 01:59:50;;;;;;;0.08;0.08;;;;;;;15.07;61.15;101418.16;7339221;19;20034;-55
2023/08/04 02:02:15;;;;;;;0.00;0.00;;;;;;;15.05;60.77;101417.31;7347732;19;20580;-56
2023/08/04 02:04:41;;;;;;;0.00;0.00;;;;;;;14.90;60.99;101407.25;7345232;19;20041;-55
2023/08/04 02:07:06;;;;;;;0.10;0.10;;;;;;;14.96;60.88;101425.50;7352368;19;20019;-56
2023/08/04 02:09:32;;;;;;;0.08;0.08;;;;;;;14.92;61.33;101421.25;7354695;19;20014;-56
2023/08/04 02:11:58;;;;;;;0.00;0.00;;;;;;;14.88;61.22;101424.84;7358056;19;20014;-56
2023/08/04 02:14:23;;;;;;;0.10;0.10;;;;;;;14.85;61.44;101424.94;7356634;19;20478;-56
2023/08/04 02:16:49;;;;;;;0.00;0.00;;;;;;;14.79;61.67;101421.56;7358327;19;20058;-57
2023/08/04 02:19:14;;;;;;;0.00;0.00;;;;;;;14.77;61.51;101433.91;7358758;19;20007;-55
2023/08/04 02:21:39;;;;;;;0.05;0.05;;;;;;;14.73;61.90;101428.78;7357667;19;20018;-56
2023/08/04 02:24:05;;;;;;;0.00;0.00;;;;;;;14.66;61.66;101428.09;7358957;19;20003;-55
2023/08/04 02:26:31;;;;;;;0.00;0.00;;;;;;;14.66;61.81;101430.75;7355198;19;20037;-56
2023/08/04 02:28:57;;;;;;;0.10;0.10;;;;;;;14.62;61.75;101439.59;7359713;19;20034;-57
2023/08/04 02:31:25;;;;;;;0.05;0.05;;;;;;;14.60;61.56;101435.28;7355218;19;20022;-54
2023/08/04 02:33:52;;;;;;;0.00;0.00;;;;;;;14.52;61.79;101430.25;7360102;19;20017;-56
2023/08/04 02:36:17;;;;;;;0.08;0.08;;;;;;;14.52;62.40;101438.13;7356809;19;20832;-55
2023/08/04 02:38:43;;;;;;;0.00;0.00;;;;;;;14.49;61.85;101453.97;7359626;19;20018;-56
2023/08/04 02:41:09;;;;;;;0.08;0.08;;;;;;;14.44;62.20;101451.44;7358879;19;20884;-56
2023/08/04 02:43:35;;;;;;;0.00;0.00;;;;;;;14.42;62.38;101448.00;7357284;19;20014;-55
2023/08/04 02:46:01;;;;;;;0.10;0.10;;;;;;;14.32;62.23;101438.63;7353311;19;20014;-56
2023/08/04 02:48:26;;;;;;;0.00;0.00;;;;;;;14.34;62.23;101441.22;7359535;19;20014;-56
2023/08/04 02:51:06;;;;;;;0.00;0.00;;;;;;;14.33;61.80;101452.63;7358852;19;20010;-55
2023/08/04 02:53:33;;;;;;;0.10;0.10;;;;;;;14.25;62.90;101461.59;7354017;19;20013;-56
2023/08/04 02:55:59;;;;;;;0.00;0.00;;;;;;;14.23;62.75;101468.63;7359740;19;20038;-56
2023/08/04 02:58:26;;;;;;;0.05;0.05;;;;;;;14.22;62.82;101476.56;7353963;19;20454;-56
2023/08/04 03:00:53;;;;;;;0.00;0.00;;;;;;;14.17;62.58;101471.41;7360446;19;20014;-56
2023/08/04 03:03:19;;;;;;;0.00;0.00;;;;;;;14.16;62.93;101468.84;7357791;19;20735;-56
2023/08/04 03:05:45;;;;;;;0.10;0.10;;;;;;;14.14;63.15;101473.25;7355396;19;20726;-57
2023/08/04 03:08:10;;;;;;;0.10;0.10;;;;;;;14.12;62.96;101481.16;7359910;19;20015;-55
2023/08/04 03:10:41;;;;;;;0.10;0.10;;;;;;;14.11;63.33;101474.19;7353930;19;20276;-57
2023/08/04 03:13:08;;;;;;;0.00;0.00;;;;;;;14.06;63.46;101481.34;7358416;19;20006;-56
2023/08/04 03:15:34;;;;;;;0.08;0.08;;;;;;;14.06;63.48;101470.81;7358762;19;20006;-57
2023/08/04 03:17:59;;;;;;;0.10;0.10;;;;;;;13.98;63.37;101459.63;7332990;19;20019;-56
2023/08/04 03:20:24;;;;;;;0.00;0.00;;;;;;;14.01;63.46;101478.81;7331504;19;20014;-56
2023/08/04 03:22:50;;;;;;;0.10;0.10;;;;;;;13.98;63.25;101470.13;7351012;19;20014;-54
2023/08/04 03:25:15;;;;;;;0.03;0.03;;;;;;;13.97;63.43;101468.41;7356900;19;20351;-55
2023/08/04 03:27:41;;;;;;;0.00;0.00;;;;;;;13.94;63.45;101460.63;7358346;19;20030;-55
2023/08/04 03:30:07;;;;;;;0.10;0.10;;;;;;;13.92;63.64;101465.03;7357416;19;20017;-56
2023/08/04 03:32:32;;;;;;;0.00;0.00;;;;;;;13.91;63.77;101471.19;7359657;19;20630;-56
2023/08/04 03:34:58;;;;;;;0.10;0.10;;;;;;;13.87;63.96;101474.78;7357211;19;20010;-54
2023/08/04 03:37:23;;;;;;;0.00;0.00;;;;;;;13.81;64.04;101464.44;7351603;19;20022;-55
2023/08/04 03:39:48;;;;;;;0.00;0.00;;;;;;;13.82;63.81;101471.41;7355792;19;20011;-56
2023/08/04 03:42:14;;;;;;;0.10;0.10;;;;;;;13.80;64.51;101473.22;7356452;19;20047;-56
2023/08/04 03:44:40;;;;;;;0.08;0.08;;;;;;;13.77;64.31;101475.00;7354773;19;20090;-56
2023/08/04 03:47:05;;;;;;;0.00;0.00;;;;;;;13.77;64.59;101474.16;7353952;19;20130;-55
2023/08/04 03:49:31;;;;;;;0.05;0.05;;;;;;;13.74;64.79;101464.59;7356451;19;20010;-56
2023/08/04 03:51:56;;;;;;;0.10;0.10;;;;;;;13.73;64.21;101468.09;7340082;19;20386;-55
2023/08/04 03:54:21;;;;;;;0.00;0.00;;;;;;;13.66;64.11;101456.03;7356291;19;20030;-56
2023/08/04 03:56:47;;;;;;;0.00;0.00;;;;;;;13.69;64.56;101463.84;7356828;19;20014;-55
2023/08/04 03:59:12;;;;;;;0.00;0.00;;;;;;;13.67;65.02;101463.00;7356873;19;20043;-56
2023/08/04 04:01:38;;;;;;;0.00;0.00;;;;;;;13.66;64.72;101461.28;7353998;19;20082;-56
2023/08/04 04:04:04;;;;;;;0.10;0.10;;;;;;;13.64;64.87;101463.09;7357219;19;20022;-54
2023/08/04 04:06:29;;;;;;;0.00;0.00;;;;;;;13.60;64.67;101458.81;7357849;19;20435;-54
2023/08/04 04:08:55;;;;;;;0.00;0.00;;;;;;;13.62;65.15;101464.88;7353492;19;20050;-56
2023/08/04 04:11:20;;;;;;;0.10;0.10;;;;;;;13.61;64.73;101452.66;7357694;19;20007;-54
2023/08/04 04:13:46;;;;;;;0.10;0.10;;;;;;;13.58;65.33;101451.84;7356989;19;20494;-56
2023/08/04 04:16:11;;;;;;;0.00;0.00;;;;;;;13.59;65.29;101458.84;7357183;19;20019;-55
2023/08/04 04:18:36;;;;;;;0.00;0.00;;;;;;;13.61;65.43;101462.28;7356879;19;20007;-57
2023/08/04 04:21:02;;;;;;;0.00;0.00;;;;;;;13.61;65.41;101462.28;7356738;19;20092;-56
2023/08/04 04:23:28;;;;;;;0.00;0.00;;;;;;;13.60;64.96;101466.69;7355642;19;20015;-52
2023/08/04 04:25:53;;;;;;;0.08;0.08;;;;;;;13.59;65.27;101470.22;7354998;19;20471;-56
2023/08/04 04:28:19;;;;;;;0.00;0.00;;;;;;;13.53;65.00;101458.97;7356197;19;20031;-55
2023/08/04 04:30:45;;;;;;;0.00;0.00;;;;;;;13.46;65.26;101453.84;7354806;19;20030;-56
2023/08/04 04:33:10;;;;;;;0.10;0.10;;;;;;;13.54;65.39;101465.97;7351616;19;20022;-53
2023/08/04 04:35:36;;;;;;;0.00;0.00;;;;;;;13.49;64.98;101471.31;7357289;19;20109;-56
2023/08/04 04:38:01;;;;;;;0.10;0.10;;;;;;;13.48;65.28;101475.69;7357276;19;20031;-56
2023/08/04 04:40:26;;;;;;;0.00;0.00;;;;;;;13.48;65.40;101478.31;7354696;19;20564;-55
2023/08/04 04:42:52;;;;;;;0.05;0.05;;;;;;;13.45;65.48;101478.38;7355370;19;20020;-55
2023/08/04 04:45:17;;;;;;;0.00;0.00;;;;;;;13.33;65.55;101456.78;7354764;19;20034;-56
2023/08/04 04:47:43;;;;;;;0.00;0.00;;;;;;;13.44;65.76;101481.03;7355170;19;20013;-54
2023/08/04 04:50:09;;;;;;;0.00;0.00;;;;;;;13.42;65.45;101473.19;7356085;19;20462;-56
2023/08/04 04:52:36;;;;;;;0.10;0.10;;;;;;;13.42;65.78;101469.69;7352917;19;20110;-54
2023/08/04 04:55:03;;;;;;;0.10;0.10;;;;;;;13.40;65.70;101475.00;7355241;19;20030;-54
2023/08/04 04:57:29;;;;;;;0.03;0.03;;;;;;;13.23;65.68;101451.75;7356448;19;20010;-56
2023/08/04 04:59:55;;;;;;;0.00;0.00;;;;;;;13.39;65.37;101477.66;7355975;19;20022;-56
2023/08/04 05:02:20;;;;;;;0.10;0.10;;;;;;;13.37;65.41;101480.28;7355368;19;20006;-56
2023/08/04 05:04:46;;;;;;;0.08;0.08;;;;;;;13.34;65.68;101480.38;7357047;19;20027;-55
2023/08/04 05:07:11;;;;;;;0.00;0.00;;;;;;;13.36;65.74;101482.97;7353134;19;20014;-56
2023/08/04 05:09:38;;;;;;;0.10;0.10;;;;;;;13.34;65.93;101476.91;7355511;19;20640;-55
2023/08/04 05:12:03;;;;;;;0.10;0.10;;;;;;;13.34;66.24;101490.88;7357142;19;20007;-55
2023/08/04 05:14:29;;;;;;;0.00;0.00;;;;;;;13.35;66.38;101491.72;7353809;19;20010;-57
2023/08/04 05:16:54;;;;;;;0.00;0.00;;;;;;;13.34;66.05;101484.75;7354556;19;20490;-56
2023/08/04 05:19:20;;;;;;;0.03;0.03;;;;;;;13.33;66.25;101485.63;7354087;19;20467;-54
2023/08/04 05:21:45;;;;;;;0.00;0.00;;;;;;;13.34;66.81;101495.25;7355746;19;20090;-57
2023/08/04 05:24:11;;;;;;;0.00;0.00;;;;;;;13.35;66.78;101492.59;7348168;19;20018;-55
2023/08/04 05:26:37;;;;;;;0.10;0.10;;;;;;;13.36;66.36;101488.22;7354929;19;20014;-56
2023/08/04 05:29:02;;;;;;;0.10;0.10;;;;;;;13.38;66.98;101492.53;7353381;19;20011;-55
2023/08/04 05:31:28;;;;;;;0.00;0.00;;;;;;;13.39;67.02;101489.00;7355722;19;20025;-55
2023/08/04 05:33:56;;;;;;;0.10;0.10;;;;;;;13.40;66.74;101495.13;7342723;19;20034;-56
2023/08/04 05:36:22;;;;;;;0.10;0.10;;;;;;;13.46;66.79;101505.47;7352913;19;20013;-54
2023/08/04 05:38:48;;;;;;;0.10;0.10;;;;;;;13.47;67.06;101496.69;7333630;19;20365;-55
2023/08/04 05:41:13;;;;;;;0.10;0.10;;;;;;;13.51;67.19;101506.25;7353378;19;20015;-55
2023/08/04 05:43:38;;;;;;;0.10;0.10;;;;;;;13.53;66.93;101508.81;7353980;19;20017;-57
2023/08/04 05:46:04;;;;;;;0.00;0.00;;;;;;;13.55;67.34;101497.41;7356779;19;20089;-57
2023/08/04 05:48:34;;;;;;;0.10;0.10;;;;;;;13.58;66.76;101509.59;7361050;19;20015;-55
2023/08/04 05:50:59;;;;;;;0.00;0.00;;;;;;;13.46;67.34;101495.84;7362735;19;20010;-54
2023/08/04 05:53:25;;;;;;;0.00;0.00;;;;;;;13.51;67.29;101495.75;7360477;19;20010;-56
2023/08/04 05:55:51;;;;;;;0.10;0.10;;;;;;;13.61;67.51;101505.13;7361766;19;20459;-56
2023/08/04 05:58:17;;;;;;;0.03;0.03;;;;;;;13.62;67.30;101512.09;7355828;19;20109;-56
2023/08/04 06:00:42;;;;;;;0.00;0.00;;;;;;;13.56;67.24;101503.50;7360656;19;20395;-56
2023/08/04 06:03:08;;;;;;;0.10;0.10;;;;;;;13.67;67.29;101519.88;7357926;19;20011;-55
2023/08/04 06:05:33;;;;;;;0.10;0.10;;;;;;;13.63;67.50;101508.56;7359310;19;20014;-55
2023/08/04 06:07:59;;;;;;;0.10;0.10;;;;;;;13.71;67.92;101519.78;7360332;19;20011;-54
2023/08/04 06:10:24;;;;;;;0.10;0.10;;;;;;;13.72;67.66;101518.00;7354999;19;20010;-57
2023/08/04 06:12:50;;;;;;;0.00;0.00;;;;;;;13.72;67.44;101518.88;7359919;19;20014;-55
2023/08/04 06:15:16;;;;;;;0.00;0.00;;;;;;;13.72;67.72;101518.00;7359435;19;20015;-55
2023/08/04 06:17:42;;;;;;;0.00;0.00;;;;;;;13.83;67.83;101536.13;7359140;19;20015;-55
2023/08/04 06:20:08;;;;;;;0.00;0.00;;;;;;;13.85;67.70;101535.22;7355986;19;20013;-56
2023/08/04 06:22:34;;;;;;;0.00;0.00;;;;;;;13.82;68.16;101523.91;7361256;19;20006;-56
2023/08/04 06:25:00;;;;;;;0.10;0.10;;;;;;;13.84;68.21;101522.09;7355638;19;20003;-54
2023/08/04 06:27:25;;;;;;;0.10;0.10;;;;;;;13.94;68.35;101534.16;7360683;19;20117;-55
2023/08/04 06:29:51;;;;;;;0.10;0.10;;;;;;;13.91;68.16;101527.19;7355881;19;21055;-54
2023/08/04 06:32:16;;;;;;;0.10;0.10;;;;;;;14.02;68.50;101542.69;7357333;19;20039;-56
2023/08/04 06:34:42;;;;;;;0.10;0.10;;;;;;;14.05;68.22;101537.38;7357809;19;20011;-56
2023/08/04 06:37:07;;;;;;;0.10;0.10;;;;;;;14.10;68.15;101538.16;7357259;19;20090;-55
2023/08/04 06:39:33;;;;;;;0.03;0.03;;;;;;;14.13;68.04;101538.06;7357188;19;20146;-55
2023/08/04 06:41:58;;;;;;;0.05;0.05;;;;;;;14.03;68.04;101518.16;7357279;19;20070;-55
2023/08/04 06:44:23;;;;;;;0.10;0.10;;;;;;;14.22;68.40;101542.22;7355380;19;20117;-57
2023/08/04 06:46:49;;;;;;;0.00;0.00;;;;;;;14.23;68.09;101536.94;7353370;19;20018;-56
2023/08/04 06:49:14;;;;;;;0.10;0.10;;;;;;;14.30;68.52;101542.06;7358380;19;20011;-55
2023/08/04 06:51:40;;;;;;;0.10;0.10;;;;;;;14.34;68.44;101546.31;7359684;19;20018;-56
2023/08/04 06:54:05;;;;;;;0.10;0.10;;;;;;;14.38;68.04;101545.34;7353744;19;20070;-54
2023/08/04 06:56:30;;;;;;;0.10;0.10;;;;;;;14.44;68.03;101548.66;7359719;19;20037;-56
2023/08/04 06:58:56;;;;;;;0.10;0.10;;;;;;;14.47;68.45;101545.09;7356593;19;20867;-56
2023/08/04 07:01:21;;;;;;;0.00;0.00;;;;;;;14.52;68.33;101543.25;7356980;19;20023;-56
2023/08/04 07:03:47;;;;;;;0.10;0.10;;;;;;;14.55;68.06;101543.19;7353709;19;20018;-56
2023/08/04 07:06:13;;;;;;;0.10;0.10;;;;;;;14.60;68.25;101551.81;7355407;19;20030;-57
2023/08/04 07:08:40;;;;;;;0.10;0.10;;;;;;;14.65;68.32;101544.69;7356701;19;20674;-56
2023/08/04 07:11:13;;;;;;;0.00;0.00;;;;;;;14.73;67.74;101537.44;7353907;19;20011;-56
2023/08/04 07:13:38;;;;;;;0.10;0.10;;;;;;;14.72;68.15;101532.22;7351774;19;20010;-57
2023/08/04 07:16:04;;;;;;;0.05;0.05;;;;;;;14.76;68.41;101529.47;7352229;19;20021;-56
2023/08/04 07:18:29;;;;;;;0.00;0.00;;;;;;;14.84;67.95;101533.66;7355272;19;20546;-53
2023/08/04 07:21:07;;;;;;;0.10;0.10;;;;;;;14.91;67.46;101540.50;7355631;19;20521;-56
2023/08/04 07:23:32;;;;;;;0.10;0.10;;;;;;;14.93;67.94;101538.69;7355327;19;20049;-56
2023/08/04 07:25:58;;;;;;;0.10;0.10;;;;;;;14.95;68.31;101537.75;7356810;19;20126;-55
2023/08/04 07:28:23;;;;;;;0.10;0.10;;;;;;;15.03;67.82;101540.16;7350594;19;20010;-56
2023/08/04 07:30:49;;;;;;;0.00;0.00;;;;;;;15.09;68.23;101544.38;7354920;19;20127;-55
2023/08/04 07:33:14;;;;;;;0.10;0.10;;;;;;;15.12;67.92;101534.63;7356129;19;20029;-55
2023/08/04 07:35:39;;;;;;;0.00;0.00;;;;;;;15.17;67.91;101537.13;7354240;19;20285;-56
2023/08/04 07:38:05;;;;;;;0.10;0.10;;;;;;;15.21;68.14;101539.63;7350145;19;20485;-55
2023/08/04 07:40:30;;;;;;;0.10;0.10;;;;;;;15.26;68.16;101536.88;7358602;19;20010;-56
2023/08/04 07:42:55;;;;;;;0.10;0.10;;;;;;;15.30;67.97;101539.34;7349505;19;20010;-56
2023/08/04 07:45:21;;;;;;;0.00;0.00;;;;;;;15.36;68.16;101548.88;7353487;19;20011;-56
2023/08/04 07:47:46;;;;;;;0.10;0.10;;;;;;;15.42;67.79;101542.56;7350267;19;20022;-56
2023/08/04 07:50:12;;;;;;;0.00;0.00;;;;;;;15.47;68.15;101545.91;7353718;19;20010;-55
2023/08/04 07:52:37;;;;;;;0.10;0.10;;;;;;;15.53;67.80;101546.59;7353597;19;20014;-56
2023/08/04 07:55:03;;;;;;;0.00;0.00;;;;;;;15.63;67.62;101541.94;7351955;19;20110;-57
2023/08/04 07:57:28;;;;;;;0.05;0.05;;;;;;;15.71;67.75;101552.22;7355705;19;20034;-56
2023/08/04 07:59:54;;;;;;;0.10;0.10;;;;;;;15.72;67.69;101548.72;7347043;19;20504;-57
2023/08/04 08:02:19;;;;;;;0.10;0.10;;;;;;;15.83;67.29;101555.38;7352447;19;20014;-56
2023/08/04 08:04:45;;;;;;;0.10;0.10;;;;;;;15.90;67.15;101545.50;7351186;19;21035;-55
2023/08/04 08:07:10;;;;;;;0.00;0.00;;;;;;;15.98;67.31;101558.44;7354924;19;20010;-57
2023/08/04 08:09:36;;;;;;;0.10;0.10;;;;;;;16.06;66.81;101562.53;7356002;19;20014;-55
2023/08/04 08:12:01;;;;;;;0.00;0.00;;;;;;;16.13;67.13;101568.50;7353376;19;20006;-57
2023/08/04 08:14:27;;;;;;;0.10;0.10;;;;;;;16.21;67.05;101571.72;7352503;19;20030;-55
2023/08/04 08:16:52;;;;;;;0.05;0.05;;;;;;;16.24;67.13;101562.88;7338253;19;19998;-56
2023/08/04 08:19:18;;;;;;;0.10;0.10;;;;;;;16.41;66.84;101586.03;7356312;19;20053;-56
2023/08/04 08:21:43;;;;;;;0.10;0.10;;;;;;;16.49;66.20;101584.03;7352364;19;20010;-57
2023/08/04 08:24:09;;;;;;;0.10;0.10;;;;;;;16.60;66.34;101589.78;7355684;19;20042;-56
2023/08/04 08:26:35;;;;;;;0.10;0.10;;;;;;;16.67;65.63;101585.16;7353419;19;20014;-55
2023/08/04 08:29:02;;;;;;;0.10;0.10;;;;;;;16.73;66.12;101577.97;7354267;19;20831;-56
2023/08/04 08:31:27;;;;;;;0.00;0.00;;;;;;;16.78;65.65;101583.94;7352700;19;20775;-57
2023/08/04 08:33:53;;;;;;;0.10;0.10;;;;;;;16.79;65.27;101575.09;7355202;19;20075;-57
2023/08/04 08:36:19;;;;;;;0.00;0.00;;;;;;;16.89;65.71;101586.19;7352181;19;20063;-57
2023/08/04 08:38:44;;;;;;;0.10;0.10;;;;;;;16.93;65.43;101586.94;7354838;19;20106;-55
2023/08/04 08:41:11;;;;;;;0.10;0.10;;;;;;;17.01;65.40;101588.41;7352854;19;20074;-57
2023/08/04 08:43:37;;;;;;;0.10;0.10;;;;;;;17.07;65.23;101582.91;7350892;19;20022;-55
2023/08/04 08:46:03;;;;;;;0.10;0.10;;;;;;;17.16;65.29;101579.06;7347176;19;20022;-56
2023/08/04 08:48:32;;;;;;;0.00;0.00;;;;;;;17.27;65.01;101576.91;7354104;19;20091;-55
2023/08/04 08:51:02;;;;;;;0.10;0.10;;;;;;;17.37;64.79;101583.56;7353192;19;20018;-55
2023/08/04 08:53:31;;;;;;;0.10;0.10;;;;;;;17.44;64.94;101584.22;7351111;19;20014;-56
2023/08/04 08:55:59;;;;;;;0.08;0.08;;;;;;;17.52;64.14;101582.13;7349420;19;20021;-56
2023/08/04 08:58:29;;;;;;;0.10;0.10;;;;;;;17.59;63.57;101582.78;7355130;19;21038;-57
2023/08/04 09:00:55;;;;;;;0.03;0.03;;;;;;;17.58;63.68;101583.69;7351563;19;20018;-55
2023/08/04 09:03:21;;;;;;;0.10;0.10;;;;;;;17.68;63.08;101587.69;7354051;19;20010;-56
2023/08/04 09:05:46;;;;;;;0.10;0.10;;;;;;;17.72;63.44;101584.03;7350961;19;20030;-56
2023/08/04 09:08:12;;;;;;;0.00;0.00;;;;;;;17.76;62.62;101575.09;7354502;19;20018;-56
2023/08/04 09:10:38;;;;;;;0.00;0.00;;;;;;;17.82;62.83;101581.91;7348155;19;20053;-56
2023/08/04 09:13:07;;;;;;;0.10;0.10;;;;;;;17.92;63.10;101574.50;7351803;19;20015;-55
2023/08/04 09:15:34;;;;;;;0.10;0.10;;;;;;;18.00;63.41;101577.72;7351319;19;20555;-56
2023/08/04 09:18:00;;;;;;;0.10;0.10;;;;;;;18.14;63.43;101572.72;7347621;19;20029;-57
2023/08/04 09:20:28;;;;;;;0.00;0.00;;;;;;;18.36;62.79;101581.50;7343471;19;21126;-55
2023/08/04 09:22:54;;;;;;;0.00;0.00;;;;;;;18.57;63.19;101569.16;7352658;19;20042;-55
2023/08/04 09:25:19;;;;;;;0.08;0.08;;;;;;;18.85;62.73;101574.16;7360175;19;20073;-56
2023/08/04 09:27:49;;;;;;;0.20;0.20;;;;;;;19.16;62.01;101573.69;7353312;19;20030;-56
2023/08/04 09:30:16;;;;;;;0.10;0.10;;;;;;;19.43;60.57;101568.94;7344855;19;20101;-57
2023/08/04 09:32:44;;;;;;;0.10;0.10;;;;;;;19.72;61.03;101561.47;7325661;19;20015;-57
2023/08/04 09:35:10;;;;;;;0.10;0.10;;;;;;;19.99;60.39;101569.03;7339946;19;20019;-56
2023/08/04 09:37:37;;;;;;;0.10;0.10;;;;;;;20.24;58.68;101558.09;7347892;19;20085;-54
2023/08/04 09:40:24;;;;;;;0.10;0.10;;;;;;;20.52;59.40;101568.19;7340347;19;20011;-57
2023/08/04 09:42:49;;;;;;;0.10;0.10;;;;;;;20.69;58.28;101568.22;7344798;19;20017;-55
2023/08/04 09:45:17;;;;;;;0.10;0.10;;;;;;;20.88;56.80;101571.66;7356804;19;20010;-56
2023/08/04 09:47:51;;;;;;;0.10;0.10;;;;;;;21.05;58.71;101554.81;7360929;19;20018;-56
2023/08/04 09:50:18;;;;;;;0.00;0.00;;;;;;;21.22;57.05;101567.19;7359136;19;20015;-55
2023/08/04 09:52:44;;;;;;;0.10;0.10;;;;;;;21.34;55.14;101558.63;7346809;19;20018;-57
2023/08/04 09:55:10;;;;;;;0.10;0.10;;;;;;;21.35;53.92;101539.06;7354542;19;20023;-54
2023/08/04 09:57:39;;;;;;;0.10;0.10;;;;;;;21.51;54.73;101552.38;7353581;19;20017;-55
2023/08/04 10:00:09;;;;;;;0.10;0.10;;;;;;;21.69;55.71;101551.34;7351188;19;20021;-56
2023/08/04 10:02:35;;;;;;;0.03;0.03;;;;;;;21.75;53.98;101547.50;7354780;19;20010;-55
2023/08/04 10:05:02;;;;;;;0.10;0.10;;;;;;;21.93;54.61;101546.44;7356983;19;20826;-57
2023/08/04 10:07:30;;;;;;;0.10;0.10;;;;;;;22.11;54.77;101546.38;7355596;19;20043;-56
2023/08/04 10:09:55;;;;;;;0.10;0.10;;;;;;;22.22;54.53;101541.28;7357150;19;20011;-57
2023/08/04 10:12:22;;;;;;;0.10;0.10;;;;;;;22.38;52.99;101542.09;7337693;19;20508;-56
2023/08/04 10:14:48;;;;;;;0.10;0.10;;;;;;;22.57;54.82;101533.03;7356930;19;20014;-55
2023/08/04 10:17:13;;;;;;;0.10;0.10;;;;;;;22.78;54.25;101526.41;7352861;19;20006;-57
2023/08/04 10:19:39;;;;;;;0.10;0.10;;;;;;;23.00;51.96;101524.19;7355249;19;20010;-55
2023/08/04 10:22:12;;;;;;;0.00;0.00;;;;;;;23.26;54.14;101524.34;7353399;19;20121;-57
2023/08/04 10:24:41;;;;;;;0.10;0.10;;;;;;;23.32;53.95;101505.34;7356652;19;20053;-56
2023/08/04 10:27:17;;;;;;;0.00;0.00;;;;;;;23.51;53.72;101499.66;7352057;19;20022;-56
2023/08/04 10:29:43;;;;;;;0.10;0.10;;;;;;;23.76;52.27;101528.31;7355619;19;20026;-56
2023/08/04 10:32:09;;;;;;;0.10;0.10;;;;;;;24.02;50.67;101519.44;7353554;19;20534;-55
2023/08/04 10:34:44;;;;;;;0.10;0.10;;;;;;;24.35;52.40;101528.84;7330719;19;20007;-57
2023/08/04 10:37:18;;;;;;;0.10;0.10;;;;;;;24.74;52.56;101519.13;7355664;19;20011;-56
2023/08/04 10:39:45;;;;;;;0.20;0.20;;;;;;;24.93;50.66;101522.19;7359054;19;20684;-57
2023/08/04 10:42:27;;;;;;;0.10;0.10;;;;;;;25.16;48.70;101511.75;7354214;19;20105;-57
2023/08/04 10:45:03;;;;;;;0.20;0.20;;;;;;;25.32;50.16;101507.00;7355590;19;20006;-56
2023/08/04 10:47:40;;;;;;;0.17;0.17;;;;;;;25.57;50.64;101517.63;7354122;19;20109;-56
2023/08/04 10:50:06;;;;;;;0.10;0.10;;;;;;;25.66;46.41;101520.59;7355413;19;20462;-57
2023/08/04 10:52:33;;;;;;;0.00;0.00;;;;;;;25.93;47.35;101521.25;7352752;19;20434;-55
2023/08/04 10:54:59;;;;;;;0.10;0.10;;;;;;;26.11;47.91;101505.66;7352865;19;21085;-56
2023/08/04 10:57:28;;;;;;;0.10;0.10;;;;;;;26.34;46.00;101522.66;7355932;19;20014;-57
2023/08/04 10:59:54;;;;;;;0.00;0.00;;;;;;;26.44;46.30;101522.84;7355030;19;20069;-57
2023/08/04 11:02:21;;;;;;;0.00;0.00;;;;;;;26.54;45.73;101515.81;7357596;19;20027;-57
2023/08/04 11:04:47;;;;;;;0.10;0.10;;;;;;;26.62;46.44;101516.94;7352121;19;20449;-57
2023/08/04 11:07:17;;;;;;;0.10;0.10;;;;;;;26.83;45.50;101529.63;7356674;19;20027;-56
2023/08/04 11:09:47;;;;;;;0.00;0.00;;;;;;;26.86;45.17;101524.84;7354966;19;21872;-58
2023/08/04 11:12:14;;;;;;;0.10;0.10;;;;;;;26.79;45.59;101517.44;7357141;19;20006;-57
2023/08/04 11:14:39;;;;;;;0.10;0.10;;;;;;;26.72;44.32;101516.22;7354082;19;20014;-57
2023/08/04 11:17:18;;;;;;;0.17;0.17;;;;;;;26.72;45.65;101522.44;7353147;19;20011;-57
2023/08/04 11:19:46;;;;;;;0.10;0.10;;;;;;;26.50;43.91;101520.53;7354341;19;20544;-57